Time;durP1;ratioP1;P1;durP2;ratioP2;P2;SDS_P1;SDS_P2;PMS_P1;PMS_P2;Temp;Humidity;BMP_temperature;BMP_pressure;BME280_temperature;BME280_humidity;BME280_pressure;Samples;Min_cycle;Max_cycle;Signal;HPM_P1;HPM_P2
2024/03/07 00:00:17;;;;;;;2.65;1.00;;;8.20;99.90;;;;;;4265401;27;20081;-57
2024/03/07 00:02:19;;;;;;;2.17;1.40;;;8.10;99.90;;;;;;4246777;27;20432;-55
2024/03/07 00:04:21;;;;;;;3.13;1.13;;;8.00;99.90;;;;;;4265090;27;20046;-56
2024/03/07 00:06:23;;;;;;;1.85;1.52;;;8.10;99.90;;;;;;4265368;27;20768;-57
2024/03/07 00:08:25;;;;;;;3.28;1.42;;;8.10;99.90;;;;;;4265479;27;20521;-57
2024/03/07 00:10:28;;;;;;;4.15;2.83;;;8.10;99.90;;;;;;4266488;27;20057;-64
2024/03/07 00:12:32;;;;;;;2.90;1.83;;;8.00;99.90;;;;;;4267010;27;20051;-55
2024/03/07 00:14:35;;;;;;;4.78;2.20;;;8.00;99.90;;;;;;4265795;27;20039;-57
2024/03/07 00:16:37;;;;;;;1.38;1.10;;;8.00;99.90;;;;;;4265536;27;20057;-56
2024/03/07 00:18:39;;;;;;;1.92;1.23;;;7.90;99.90;;;;;;4265377;27;20126;-56
2024/03/07 00:20:42;;;;;;;3.63;1.70;;;7.90;99.90;;;;;;4246532;28;20051;-56
2024/03/07 00:22:45;;;;;;;5.18;1.98;;;7.80;99.90;;;;;;4265527;27;20568;-58
2024/03/07 00:24:48;;;;;;;4.60;1.77;;;7.80;99.90;;;;;;4266141;27;20042;-58
2024/03/07 00:26:51;;;;;;;1.50;1.15;;;7.80;99.90;;;;;;4265909;27;20046;-55
2024/03/07 00:28:55;;;;;;;5.68;1.67;;;7.80;99.90;;;;;;4267014;27;20042;-57
2024/03/07 00:30:57;;;;;;;2.95;2.05;;;7.80;99.90;;;;;;4267626;27;20047;-57
2024/03/07 00:33:00;;;;;;;1.70;1.52;;;7.60;99.90;;;;;;4268095;27;20047;-61
2024/03/07 00:35:05;;;;;;;2.55;1.85;;;7.50;99.90;;;;;;4267312;27;20454;-58
2024/03/07 00:37:07;;;;;;;3.00;1.13;;;7.50;99.90;;;;;;4266879;27;20053;-58
2024/03/07 00:39:14;;;;;;;2.00;1.20;;;7.50;99.90;;;;;;4265842;27;20541;-57
2024/03/07 00:41:21;;;;;;;2.17;1.60;;;7.50;99.90;;;;;;4265747;27;20119;-58
2024/03/07 00:43:23;;;;;;;2.22;1.40;;;7.50;99.90;;;;;;4265586;27;20465;-56
2024/03/07 00:45:28;;;;;;;4.45;1.67;;;7.50;99.90;;;;;;4265173;27;20455;-57
2024/03/07 00:47:31;;;;;;;0.80;0.80;;;7.50;99.90;;;;;;4265346;27;20516;-57
2024/03/07 00:49:34;;;;;;;2.00;1.57;;;7.50;99.90;;;;;;4265031;27;20067;-56
2024/03/07 00:51:36;;;;;;;2.22;1.48;;;7.40;99.90;;;;;;4265156;27;20474;-57
2024/03/07 00:53:41;;;;;;;2.38;1.10;;;7.40;99.90;;;;;;4265383;27;20053;-56
2024/03/07 00:55:43;;;;;;;2.05;1.85;;;7.40;99.90;;;;;;4267152;27;20485;-57
2024/03/07 00:57:46;;;;;;;2.53;1.38;;;7.40;99.90;;;;;;4267110;27;20055;-56
2024/03/07 00:59:48;;;;;;;3.60;1.02;;;7.40;99.90;;;;;;4268885;27;20087;-57
2024/03/07 01:01:52;;;;;;;1.63;1.52;;;7.40;99.90;;;;;;4268179;27;20080;-55
2024/03/07 01:03:54;;;;;;;4.35;1.77;;;7.30;99.90;;;;;;4267972;27;20047;-56
2024/03/07 01:05:58;;;;;;;1.77;0.85;;;7.30;99.90;;;;;;4268094;27;20049;-56
2024/03/07 01:08:00;;;;;;;1.80;1.00;;;7.30;99.90;;;;;;4267648;27;20051;-57
2024/03/07 01:10:05;;;;;;;1.83;1.15;;;7.30;99.90;;;;;;4267844;27;20551;-56
2024/03/07 01:12:09;;;;;;;1.52;0.88;;;7.30;99.90;;;;;;4267931;27;20133;-55
2024/03/07 01:14:13;;;;;;;2.13;1.30;;;7.40;99.90;;;;;;4268089;27;20103;-56
2024/03/07 01:16:15;;;;;;;1.92;1.70;;;7.40;99.90;;;;;;4267821;27;20110;-56
2024/03/07 01:18:18;;;;;;;1.33;0.82;;;7.30;99.90;;;;;;4267734;27;20521;-56
2024/03/07 01:20:21;;;;;;;7.90;2.67;;;7.40;99.90;;;;;;4268304;27;20055;-59
2024/03/07 01:22:23;;;;;;;1.80;1.15;;;7.30;99.90;;;;;;4268762;27;20046;-57
2024/03/07 01:24:25;;;;;;;2.17;1.02;;;7.30;99.90;;;;;;4268696;27;20051;-56
2024/03/07 01:26:28;;;;;;;1.40;1.13;;;7.40;99.90;;;;;;4268606;27;20072;-57
2024/03/07 01:28:30;;;;;;;3.72;2.10;;;7.40;99.90;;;;;;4268752;27;20043;-57
2024/03/07 01:30:32;;;;;;;4.00;1.05;;;7.40;99.90;;;;;;4268771;27;20069;-62
2024/03/07 01:32:34;;;;;;;1.58;1.48;;;7.40;99.90;;;;;;4267304;27;20050;-56
2024/03/07 01:34:38;;;;;;;1.42;1.00;;;7.40;99.90;;;;;;4267661;27;20042;-56
2024/03/07 01:36:40;;;;;;;1.25;1.15;;;7.40;99.90;;;;;;4267438;27;20078;-56
2024/03/07 01:38:42;;;;;;;4.47;2.78;;;7.40;99.90;;;;;;4267666;27;20042;-57
2024/03/07 01:40:45;;;;;;;2.17;1.65;;;7.40;99.90;;;;;;4267211;27;20038;-56
2024/03/07 01:42:48;;;;;;;1.05;1.02;;;7.40;99.90;;;;;;4267472;27;20089;-60
2024/03/07 01:44:50;;;;;;;1.52;1.02;;;7.40;99.90;;;;;;4268021;27;20513;-56
2024/03/07 01:46:52;;;;;;;3.33;1.92;;;7.30;99.90;;;;;;4268867;27;20042;-57
2024/03/07 01:48:55;;;;;;;3.08;0.82;;;7.30;99.90;;;;;;4251276;27;20063;-56
2024/03/07 01:51:00;;;;;;;1.80;1.27;;;7.30;99.90;;;;;;4269268;27;20066;-57
2024/03/07 01:53:02;;;;;;;4.10;1.40;;;7.30;99.90;;;;;;4268837;27;20500;-56
2024/03/07 01:55:07;;;;;;;1.55;1.02;;;7.30;99.90;;;;;;4268154;27;20070;-56
2024/03/07 01:57:10;;;;;;;1.27;1.08;;;7.30;99.90;;;;;;4271369;27;20386;-58
2024/03/07 01:59:12;;;;;;;2.75;1.10;;;7.20;99.90;;;;;;4268936;27;20122;-62
2024/03/07 02:01:15;;;;;;;1.15;0.90;;;7.30;99.90;;;;;;4267730;27;20564;-55
2024/03/07 02:03:17;;;;;;;1.58;1.45;;;7.30;99.90;;;;;;4267247;27;20095;-56
2024/03/07 02:05:21;;;;;;;3.35;1.30;;;7.20;99.90;;;;;;4267493;27;20050;-56
2024/03/07 02:07:26;;;;;;;3.33;1.58;;;7.20;99.90;;;;;;4266828;27;20047;-56
2024/03/07 02:09:28;;;;;;;1.23;1.08;;;7.10;99.90;;;;;;4266196;27;20438;-56
2024/03/07 02:11:30;;;;;;;1.48;0.85;;;7.20;99.90;;;;;;4266928;27;20608;-56
2024/03/07 02:13:32;;;;;;;1.42;1.20;;;7.10;99.90;;;;;;4266765;27;20039;-57
2024/03/07 02:15:34;;;;;;;2.33;1.83;;;7.20;99.90;;;;;;4266537;27;20470;-56
2024/03/07 02:17:37;;;;;;;3.33;1.92;;;7.20;99.90;;;;;;4266779;27;20076;-56
2024/03/07 02:19:40;;;;;;;1.83;0.90;;;7.20;99.90;;;;;;4266618;27;20149;-56
2024/03/07 02:21:43;;;;;;;2.22;1.48;;;7.20;99.90;;;;;;4266606;27;20047;-57
2024/03/07 02:23:45;;;;;;;1.52;1.23;;;7.20;99.90;;;;;;4266743;27;20125;-55
2024/03/07 02:25:48;;;;;;;1.05;0.88;;;7.20;99.90;;;;;;4266751;27;20053;-57
2024/03/07 02:27:50;;;;;;;3.40;1.85;;;7.10;99.90;;;;;;4248297;27;20043;-56
2024/03/07 02:29:52;;;;;;;1.92;1.52;;;7.10;99.90;;;;;;4266254;27;20042;-56
2024/03/07 02:31:54;;;;;;;1.15;0.90;;;7.10;99.90;;;;;;4266632;27;20091;-56
2024/03/07 02:33:56;;;;;;;1.70;0.90;;;7.00;99.90;;;;;;4266713;27;20042;-56
2024/03/07 02:35:58;;;;;;;3.38;1.30;;;7.00;99.90;;;;;;4266575;27;20045;-57
2024/03/07 02:38:02;;;;;;;1.08;0.98;;;7.00;99.90;;;;;;4266654;27;20068;-56
2024/03/07 02:40:07;;;;;;;1.65;1.50;;;7.00;99.90;;;;;;4266298;27;20099;-56
2024/03/07 02:42:09;;;;;;;2.10;1.42;;;7.10;99.90;;;;;;4266494;27;20046;-56
2024/03/07 02:44:12;;;;;;;4.97;1.88;;;7.00;99.90;;;;;;4266186;27;20046;-56
2024/03/07 02:46:14;;;;;;;1.20;1.10;;;7.00;99.90;;;;;;4266333;27;20046;-56
2024/03/07 02:48:18;;;;;;;1.20;1.10;;;6.90;99.90;;;;;;4266489;27;20039;-56
2024/03/07 02:50:21;;;;;;;0.77;0.73;;;6.90;99.90;;;;;;4266438;27;20177;-56
2024/03/07 02:52:24;;;;;;;3.17;0.95;;;7.00;99.90;;;;;;4266064;27;20098;-56
2024/03/07 02:54:27;;;;;;;1.35;1.25;;;6.90;99.90;;;;;;4248002;27;20388;-55
2024/03/07 02:56:29;;;;;;;1.67;1.58;;;6.90;99.90;;;;;;4265993;27;20066;-56
2024/03/07 02:58:31;;;;;;;1.00;0.90;;;6.80;99.90;;;;;;4247536;27;20051;-56
2024/03/07 03:00:34;;;;;;;2.15;1.45;;;6.80;99.90;;;;;;4266150;27;20424;-57
2024/03/07 03:02:36;;;;;;;0.70;0.70;;;6.90;99.90;;;;;;4266913;27;20046;-57
2024/03/07 03:04:38;;;;;;;0.60;0.60;;;6.80;99.90;;;;;;4266956;27;20526;-55
2024/03/07 03:06:40;;;;;;;0.90;0.75;;;6.80;99.90;;;;;;4267371;27;20077;-57
2024/03/07 03:08:42;;;;;;;1.25;0.90;;;6.80;99.90;;;;;;4267688;27;20046;-60
2024/03/07 03:10:46;;;;;;;0.73;0.73;;;6.70;99.90;;;;;;4248330;27;20505;-59
2024/03/07 03:12:48;;;;;;;3.67;1.17;;;6.80;99.90;;;;;;4266136;27;20409;-56
2024/03/07 03:14:50;;;;;;;1.50;1.20;;;6.80;99.90;;;;;;4266272;27;20042;-56
2024/03/07 03:16:52;;;;;;;2.78;1.48;;;6.80;99.90;;;;;;4267837;27;20038;-56
2024/03/07 03:18:56;;;;;;;1.58;1.45;;;6.80;99.90;;;;;;4268662;27;20057;-56
2024/03/07 03:20:57;;;;;;;2.15;0.80;;;6.80;99.90;;;;;;4249595;27;20099;-63
2024/03/07 03:23:02;;;;;;;0.85;0.85;;;6.80;99.90;;;;;;4268166;27;20114;-59
2024/03/07 03:25:20;;;;;;;1.70;0.95;;;6.80;99.90;;;;;;4267769;27;20517;-57
2024/03/07 03:27:24;;;;;;;2.65;1.42;;;6.80;99.90;;;;;;4266937;27;20043;-56
2024/03/07 03:29:28;;;;;;;3.58;1.60;;;6.80;99.90;;;;;;4265938;27;20050;-58
2024/03/07 03:31:30;;;;;;;1.63;1.17;;;6.90;99.90;;;;;;4265851;27;20506;-56
2024/03/07 03:33:32;;;;;;;3.03;0.98;;;6.90;99.90;;;;;;4265367;27;20046;-56
2024/03/07 03:35:34;;;;;;;1.33;1.23;;;6.90;99.90;;;;;;4265590;27;20070;-57
2024/03/07 03:37:36;;;;;;;1.73;1.35;;;6.80;99.90;;;;;;4265627;27;20499;-57
2024/03/07 03:39:38;;;;;;;2.38;1.92;;;6.80;99.90;;;;;;4265603;27;20042;-56
2024/03/07 03:41:40;;;;;;;3.25;0.98;;;6.80;99.90;;;;;;4265544;27;20053;-56
2024/03/07 03:43:44;;;;;;;2.60;1.05;;;6.80;99.90;;;;;;4246839;27;20053;-56
2024/03/07 03:45:47;;;;;;;2.25;1.30;;;6.70;99.90;;;;;;4266127;27;20053;-62
2024/03/07 03:47:49;;;;;;;1.08;0.98;;;6.70;99.90;;;;;;4267549;27;20068;-63
2024/03/07 03:49:51;;;;;;;1.10;1.00;;;6.70;99.90;;;;;;4266912;27;20051;-63
2024/03/07 03:51:54;;;;;;;1.60;0.98;;;6.70;99.90;;;;;;4266699;27;20131;-55
2024/03/07 03:53:57;;;;;;;3.90;1.08;;;6.70;99.90;;;;;;4246861;28;20088;-56
2024/03/07 03:55:59;;;;;;;1.15;0.98;;;6.70;99.90;;;;;;4265360;27;20082;-56
2024/03/07 03:58:02;;;;;;;0.70;0.50;;;6.70;99.90;;;;;;4265017;27;20541;-57
2024/03/07 04:00:12;;;;;;;1.42;1.10;;;6.80;99.90;;;;;;4265789;27;20511;-56
2024/03/07 04:02:14;;;;;;;2.10;1.05;;;6.80;99.90;;;;;;4265893;27;20468;-57
2024/03/07 04:04:16;;;;;;;2.00;1.48;;;6.80;99.90;;;;;;4265483;27;20401;-56
2024/03/07 04:06:19;;;;;;;1.17;1.08;;;6.80;99.90;;;;;;4265412;27;20046;-56
2024/03/07 04:08:21;;;;;;;3.90;1.17;;;6.70;99.90;;;;;;4265175;27;20049;-56
2024/03/07 04:10:23;;;;;;;0.70;0.70;;;6.60;99.90;;;;;;4265101;27;20091;-57
2024/03/07 04:12:26;;;;;;;0.55;0.55;;;6.60;99.90;;;;;;4246510;28;20047;-60
2024/03/07 04:14:32;;;;;;;0.60;0.52;;;6.60;99.90;;;;;;4265087;27;20043;-56
2024/03/07 04:16:36;;;;;;;1.00;0.60;;;6.60;99.90;;;;;;4265107;27;20038;-57
2024/03/07 04:18:38;;;;;;;0.88;0.73;;;6.70;99.90;;;;;;4266810;27;20065;-62
2024/03/07 04:20:40;;;;;;;1.20;0.80;;;6.70;99.90;;;;;;4266442;27;20046;-57
2024/03/07 04:22:42;;;;;;;2.67;1.15;;;6.70;99.90;;;;;;4246890;28;20446;-56
2024/03/07 04:24:44;;;;;;;0.80;0.70;;;6.70;99.90;;;;;;4265363;27;20405;-58
2024/03/07 04:26:46;;;;;;;4.15;1.92;;;6.60;99.90;;;;;;4264640;27;20039;-57
2024/03/07 04:28:50;;;;;;;0.82;0.60;;;6.60;99.90;;;;;;4265241;27;20043;-56
2024/03/07 04:30:53;;;;;;;0.85;0.68;;;6.60;99.90;;;;;;4265307;27;20051;-56
2024/03/07 04:32:58;;;;;;;1.23;0.52;;;6.50;99.90;;;;;;4265860;27;20050;-58
2024/03/07 04:35:07;;;;;;;1.50;1.00;;;6.50;99.90;;;;;;4268262;27;20054;-56
2024/03/07 04:37:09;;;;;;;2.13;0.85;;;6.40;99.90;;;;;;4268357;27;20042;-57
2024/03/07 04:39:22;;;;;;;1.10;0.95;;;6.40;99.90;;;;;;4268317;27;20050;-57
2024/03/07 04:41:24;;;;;;;1.33;0.80;;;6.40;99.90;;;;;;4268143;27;20042;-57
2024/03/07 04:43:27;;;;;;;5.82;1.55;;;6.30;99.90;;;;;;4250048;27;20563;-56
2024/03/07 04:45:29;;;;;;;1.13;0.80;;;6.30;99.90;;;;;;4268565;27;20074;-58
2024/03/07 04:47:31;;;;;;;1.88;1.30;;;6.30;99.90;;;;;;4268663;27;20382;-62
2024/03/07 04:49:35;;;;;;;1.98;0.82;;;6.30;99.90;;;;;;4269100;27;20473;-59
2024/03/07 04:51:37;;;;;;;2.00;1.38;;;6.30;99.90;;;;;;4268700;27;20405;-58
2024/03/07 04:53:42;;;;;;;1.20;1.10;;;6.20;99.90;;;;;;4268374;27;20125;-56
2024/03/07 04:55:44;;;;;;;4.30;1.95;;;6.20;99.90;;;;;;4250073;27;20092;-57
2024/03/07 04:57:47;;;;;;;1.17;0.40;;;6.10;99.90;;;;;;4268429;27;20047;-56
2024/03/07 04:59:49;;;;;;;0.65;0.65;;;6.20;99.90;;;;;;4267916;27;20103;-57
2024/03/07 05:01:51;;;;;;;3.05;1.30;;;6.20;99.90;;;;;;4267182;27;20095;-57
2024/03/07 05:03:53;;;;;;;5.00;1.60;;;6.20;99.90;;;;;;4267884;27;20051;-57
2024/03/07 05:05:57;;;;;;;2.30;1.00;;;6.10;99.90;;;;;;4268158;27;20081;-57
2024/03/07 05:07:59;;;;;;;1.67;1.15;;;6.10;99.90;;;;;;4249487;27;20043;-57
2024/03/07 05:10:01;;;;;;;2.85;1.25;;;6.10;99.90;;;;;;4267649;27;20046;-57
2024/03/07 05:12:04;;;;;;;1.30;1.20;;;6.00;99.90;;;;;;4267813;27;20043;-56
2024/03/07 05:14:06;;;;;;;0.52;0.40;;;6.00;99.90;;;;;;4267553;27;20454;-58
2024/03/07 05:16:08;;;;;;;1.65;0.90;;;6.00;99.90;;;;;;4267855;27;20457;-56
2024/03/07 05:18:12;;;;;;;1.52;0.75;;;6.00;99.90;;;;;;4268217;27;20046;-57
2024/03/07 05:20:15;;;;;;;1.33;0.80;;;6.00;99.90;;;;;;4267729;27;20449;-57
2024/03/07 05:22:22;;;;;;;0.98;0.88;;;6.10;99.90;;;;;;4267509;27;20076;-57
2024/03/07 05:24:24;;;;;;;2.90;1.25;;;6.10;99.90;;;;;;4267470;27;20054;-56
2024/03/07 05:26:27;;;;;;;1.65;1.08;;;6.10;99.90;;;;;;4268055;27;20408;-56
2024/03/07 05:28:29;;;;;;;1.52;1.38;;;6.00;99.90;;;;;;4267744;27;20046;-57
2024/03/07 05:30:35;;;;;;;3.85;1.27;;;6.00;99.90;;;;;;4267702;27;20050;-56
2024/03/07 05:32:43;;;;;;;1.27;1.02;;;6.10;99.90;;;;;;4267545;27;20129;-57
2024/03/07 05:34:51;;;;;;;1.40;0.95;;;6.00;99.90;;;;;;4268187;27;20051;-56
2024/03/07 05:36:53;;;;;;;1.20;0.88;;;6.00;99.90;;;;;;4269093;27;20047;-61
2024/03/07 05:38:57;;;;;;;1.13;0.80;;;6.00;99.90;;;;;;4269834;27;20074;-60
2024/03/07 05:41:01;;;;;;;1.83;1.13;;;6.00;99.90;;;;;;4268464;27;20043;-57
2024/03/07 05:43:03;;;;;;;1.23;1.02;;;6.00;99.90;;;;;;4267784;27;20050;-57
2024/03/07 05:45:09;;;;;;;1.08;0.65;;;5.90;99.90;;;;;;4266962;27;20129;-57
2024/03/07 05:47:13;;;;;;;1.00;0.80;;;6.00;99.90;;;;;;4267145;27;20042;-57
2024/03/07 05:49:20;;;;;;;0.70;0.60;;;5.90;99.90;;;;;;4267304;27;20049;-57
2024/03/07 05:51:23;;;;;;;0.57;0.43;;;6.00;99.90;;;;;;4267408;27;20051;-57
2024/03/07 05:53:27;;;;;;;0.40;0.40;;;5.90;99.90;;;;;;4266719;27;20071;-57
2024/03/07 05:55:33;;;;;;;2.53;1.50;;;5.90;99.90;;;;;;4266881;27;20042;-57
2024/03/07 05:57:35;;;;;;;0.95;0.52;;;5.90;99.90;;;;;;4267066;27;20050;-58
2024/03/07 05:59:38;;;;;;;2.95;1.40;;;5.90;99.90;;;;;;4267058;27;20473;-56
2024/03/07 06:01:40;;;;;;;1.52;1.00;;;5.90;99.90;;;;;;4267663;27;20038;-57
2024/03/07 06:03:43;;;;;;;0.73;0.50;;;5.90;99.90;;;;;;4267226;27;20126;-56
2024/03/07 06:05:48;;;;;;;1.90;0.85;;;5.90;99.90;;;;;;4267060;27;20046;-57
2024/03/07 06:07:50;;;;;;;1.83;0.95;;;5.80;99.90;;;;;;4266767;27;20042;-57
2024/03/07 06:09:52;;;;;;;1.95;1.00;;;5.90;99.90;;;;;;4266861;27;20053;-57
2024/03/07 06:11:55;;;;;;;1.40;1.23;;;5.90;99.90;;;;;;4266665;27;20054;-57
2024/03/07 06:13:58;;;;;;;1.40;0.82;;;6.00;99.90;;;;;;4266885;27;20481;-57
2024/03/07 06:16:04;;;;;;;3.05;1.23;;;6.00;99.90;;;;;;4266779;27;20053;-56
2024/03/07 06:18:10;;;;;;;2.72;0.95;;;6.00;99.90;;;;;;4266765;27;20039;-57
2024/03/07 06:20:25;;;;;;;0.82;0.75;;;6.10;99.90;;;;;;4266546;27;20062;-56
2024/03/07 06:22:27;;;;;;;1.05;0.50;;;6.10;99.90;;;;;;4266301;27;20043;-56
2024/03/07 06:24:31;;;;;;;1.98;1.15;;;6.00;99.90;;;;;;4266764;27;20478;-59
2024/03/07 06:26:46;;;;;;;0.63;0.60;;;6.00;99.90;;;;;;4267538;27;20057;-57
2024/03/07 06:28:50;;;;;;;1.17;0.50;;;5.90;99.90;;;;;;4267238;27;20050;-57
2024/03/07 06:30:52;;;;;;;2.47;1.70;;;6.00;99.90;;;;;;4267600;27;20071;-61
2024/03/07 06:32:54;;;;;;;20.30;1.15;;;6.00;99.90;;;;;;4267297;27;20043;-57
2024/03/07 06:34:57;;;;;;;2.13;0.47;;;6.00;99.90;;;;;;4267387;27;20051;-56
2024/03/07 06:36:59;;;;;;;1.90;0.77;;;6.00;99.90;;;;;;4266715;27;20126;-57
2024/03/07 06:39:04;;;;;;;0.68;0.63;;;6.00;99.90;;;;;;4266990;27;20050;-56
2024/03/07 06:41:10;;;;;;;0.65;0.50;;;6.00;99.90;;;;;;4248757;27;20051;-57
2024/03/07 06:43:12;;;;;;;1.45;0.98;;;5.90;99.90;;;;;;4266543;27;20047;-61
2024/03/07 06:45:15;;;;;;;1.10;1.00;;;5.90;99.90;;;;;;4266317;27;20054;-57
2024/03/07 06:47:18;;;;;;;1.25;0.90;;;6.00;99.90;;;;;;4266104;27;20116;-56
2024/03/07 06:49:20;;;;;;;0.60;0.60;;;6.00;99.90;;;;;;4266156;27;20050;-56
2024/03/07 06:51:24;;;;;;;2.72;1.48;;;6.10;99.90;;;;;;4266005;27;20463;-57
2024/03/07 06:53:29;;;;;;;1.42;1.33;;;6.00;99.90;;;;;;4247978;27;20088;-58
2024/03/07 06:55:33;;;;;;;3.20;1.70;;;6.00;99.90;;;;;;4266113;27;20091;-57
2024/03/07 06:57:40;;;;;;;1.60;0.60;;;6.10;99.90;;;;;;4266772;27;20458;-58
2024/03/07 06:59:42;;;;;;;2.47;1.65;;;6.10;99.90;;;;;;4248125;27;20538;-58
2024/03/07 07:01:46;;;;;;;1.45;1.35;;;6.00;99.90;;;;;;4247660;27;20067;-57
2024/03/07 07:03:48;;;;;;;1.20;1.10;;;6.20;99.90;;;;;;4266367;27;20051;-57
2024/03/07 07:05:50;;;;;;;1.58;0.93;;;6.30;99.90;;;;;;4265788;27;20184;-56
2024/03/07 07:07:53;;;;;;;1.52;1.33;;;6.40;99.90;;;;;;4266510;27;20520;-57
2024/03/07 07:09:56;;;;;;;3.72;1.55;;;6.50;99.90;;;;;;4265667;27;20051;-58
2024/03/07 07:11:58;;;;;;;2.42;1.30;;;6.50;99.90;;;;;;4265963;27;20122;-57
2024/03/07 07:14:02;;;;;;;2.42;1.42;;;6.60;99.90;;;;;;4265961;27;20397;-57
2024/03/07 07:16:04;;;;;;;1.25;0.50;;;6.70;99.90;;;;;;4266163;27;20047;-57
2024/03/07 07:18:07;;;;;;;3.00;0.80;;;6.70;99.90;;;;;;4266114;27;20039;-57
2024/03/07 07:20:13;;;;;;;5.13;2.13;;;7.00;99.90;;;;;;4265456;27;20085;-57
2024/03/07 07:22:17;;;;;;;0.57;0.50;;;7.20;99.90;;;;;;4266360;27;20390;-58
2024/03/07 07:24:21;;;;;;;0.57;0.50;;;7.20;99.90;;;;;;4266792;27;20046;-57
2024/03/07 07:26:25;;;;;;;4.53;0.85;;;7.40;99.90;;;;;;4266694;27;20043;-54
2024/03/07 07:28:28;;;;;;;5.45;1.63;;;7.60;99.90;;;;;;4266816;27;20047;-57
2024/03/07 07:30:30;;;;;;;7.75;2.63;;;7.70;99.90;;;;;;4266272;27;20046;-54
2024/03/07 07:32:32;;;;;;;1.50;1.05;;;7.90;99.70;;;;;;4266184;27;20050;-56
2024/03/07 07:34:35;;;;;;;2.00;1.20;;;8.00;99.90;;;;;;4265427;27;20070;-58
2024/03/07 07:36:38;;;;;;;1.30;0.43;;;8.40;99.10;;;;;;4265844;27;20050;-59
2024/03/07 07:38:41;;;;;;;1.50;1.40;;;8.80;98.40;;;;;;4266426;27;20047;-58
2024/03/07 07:40:44;;;;;;;2.72;1.58;;;9.00;98.50;;;;;;4266093;27;20142;-56
2024/03/07 07:42:48;;;;;;;0.93;0.80;;;9.10;98.10;;;;;;4265851;27;20099;-56
2024/03/07 07:44:50;;;;;;;0.82;0.80;;;9.20;97.60;;;;;;4247123;27;20040;-56
2024/03/07 07:46:52;;;;;;;0.85;0.65;;;9.30;97.80;;;;;;4265581;27;20084;-57
2024/03/07 07:48:55;;;;;;;2.10;1.23;;;9.40;97.80;;;;;;4265395;27;20129;-59
2024/03/07 07:50:59;;;;;;;0.77;0.70;;;9.50;97.30;;;;;;4265891;27;20046;-57
2024/03/07 07:53:05;;;;;;;0.93;0.90;;;9.40;97.40;;;;;;4265631;27;20070;-57
2024/03/07 07:55:14;;;;;;;2.20;0.80;;;9.30;97.30;;;;;;4266047;27;20408;-56
2024/03/07 07:57:16;;;;;;;2.03;0.98;;;9.00;97.70;;;;;;4266352;27;20117;-57
2024/03/07 07:59:18;;;;;;;2.35;0.88;;;9.20;97.90;;;;;;4266174;27;20043;-56
2024/03/07 08:01:20;;;;;;;3.75;1.88;;;9.40;97.70;;;;;;4265957;27;20067;-59
2024/03/07 08:03:22;;;;;;;5.40;1.02;;;9.90;97.40;;;;;;4265681;27;20069;-53
2024/03/07 08:05:27;;;;;;;0.75;0.73;;;10.20;96.80;;;;;;4265929;27;20445;-56
2024/03/07 08:07:30;;;;;;;1.35;0.70;;;10.30;96.30;;;;;;4265922;27;20450;-55
2024/03/07 08:09:32;;;;;;;3.40;1.70;;;10.40;96.80;;;;;;4269643;27;20046;-57
2024/03/07 08:11:35;;;;;;;1.17;0.52;;;10.70;96.00;;;;;;4269812;27;20042;-56
2024/03/07 08:13:37;;;;;;;9.20;0.85;;;10.80;95.70;;;;;;4269076;27;20500;-58
2024/03/07 08:15:39;;;;;;;0.82;0.70;;;10.90;95.60;;;;;;4268710;27;20067;-58
2024/03/07 08:17:42;;;;;;;1.35;0.70;;;11.10;95.10;;;;;;4268291;27;20046;-58
2024/03/07 08:19:46;;;;;;;1.40;0.70;;;11.10;95.40;;;;;;4268548;27;20065;-58
2024/03/07 08:21:48;;;;;;;0.85;0.60;;;11.00;95.20;;;;;;4268756;27;20156;-57
2024/03/07 08:23:52;;;;;;;0.73;0.60;;;11.00;95.40;;;;;;4268495;27;20046;-57
2024/03/07 08:25:54;;;;;;;2.10;0.60;;;10.90;95.40;;;;;;4268517;27;20042;-56
2024/03/07 08:27:57;;;;;;;0.80;0.77;;;10.80;95.30;;;;;;4267787;27;20059;-57
2024/03/07 08:29:59;;;;;;;0.60;0.40;;;10.70;95.40;;;;;;4268561;27;20405;-57
2024/03/07 08:32:02;;;;;;;1.38;1.00;;;10.50;95.80;;;;;;4268394;27;20397;-56
2024/03/07 08:34:04;;;;;;;0.45;0.45;;;10.40;95.60;;;;;;4268520;27;20129;-57
2024/03/07 08:36:09;;;;;;;3.13;1.60;;;10.20;95.90;;;;;;4268342;27;20047;-57
2024/03/07 08:38:12;;;;;;;10.45;1.45;;;10.00;96.00;;;;;;4268433;27;20529;-58
2024/03/07 08:40:21;;;;;;;5.68;2.33;;;9.80;96.50;;;;;;4268591;27;20453;-57
2024/03/07 08:42:27;;;;;;;2.45;1.00;;;9.70;96.40;;;;;;4268276;27;20047;-57
2024/03/07 08:44:29;;;;;;;1.55;1.15;;;9.70;96.70;;;;;;4268699;27;20070;-57
2024/03/07 08:46:31;;;;;;;3.72;1.02;;;9.80;96.60;;;;;;4267623;27;20038;-56
2024/03/07 08:48:33;;;;;;;3.10;1.02;;;9.80;96.60;;;;;;4267540;27;20042;-57
2024/03/07 08:50:37;;;;;;;2.15;1.05;;;9.60;96.70;;;;;;4252267;27;20077;-57
2024/03/07 08:52:40;;;;;;;0.82;0.55;;;9.60;96.80;;;;;;4257682;27;20082;-57
2024/03/07 08:54:44;;;;;;;1.85;0.93;;;9.50;97.20;;;;;;4263559;27;20186;-57
2024/03/07 08:56:47;;;;;;;1.20;0.75;;;9.50;97.10;;;;;;4246178;27;20470;-57
2024/03/07 08:58:49;;;;;;;1.70;1.27;;;9.50;97.20;;;;;;4258711;27;20035;-57
2024/03/07 09:00:52;;;;;;;0.93;0.60;;;9.50;97.10;;;;;;4258989;27;20035;-58
2024/03/07 09:02:59;;;;;;;0.88;0.80;;;9.60;97.30;;;;;;4257659;27;20558;-57
2024/03/07 09:05:05;;;;;;;1.45;1.00;;;9.60;97.30;;;;;;4265143;27;20081;-56
2024/03/07 09:07:07;;;;;;;1.67;0.95;;;9.60;97.30;;;;;;4251718;27;20476;-54
2024/03/07 09:09:10;;;;;;;1.25;0.65;;;9.70;97.20;;;;;;4257174;27;20119;-55
2024/03/07 09:11:12;;;;;;;4.50;1.60;;;9.70;97.30;;;;;;4263992;27;20557;-56
2024/03/07 09:13:16;;;;;;;0.80;0.70;;;9.80;97.10;;;;;;4266206;27;20099;-60
2024/03/07 09:15:21;;;;;;;0.98;0.75;;;9.70;97.40;;;;;;4252971;27;20051;-56
2024/03/07 09:17:24;;;;;;;11.80;0.80;;;9.80;97.40;;;;;;4260493;27;20047;-55
2024/03/07 09:19:27;;;;;;;0.68;0.50;;;9.90;96.50;;;;;;4261032;27;20050;-56
2024/03/07 09:21:29;;;;;;;0.70;0.70;;;10.00;96.50;;;;;;4264179;27;20572;-55
2024/03/07 09:23:31;;;;;;;1.63;0.93;;;10.00;96.10;;;;;;4262583;27;20511;-55
2024/03/07 09:25:34;;;;;;;0.50;0.40;;;10.10;95.90;;;;;;4252547;27;20054;-54
2024/03/07 09:27:37;;;;;;;1.85;1.08;;;10.10;95.80;;;;;;4258205;27;20043;-58
2024/03/07 09:29:41;;;;;;;0.40;0.40;;;10.20;95.40;;;;;;4255713;27;20130;-56
2024/03/07 09:31:43;;;;;;;3.15;0.95;;;10.20;95.30;;;;;;4266638;27;20115;-55
2024/03/07 09:33:45;;;;;;;0.60;0.60;;;10.10;95.30;;;;;;4262275;27;20043;-56
2024/03/07 09:35:48;;;;;;;0.90;0.55;;;10.00;95.40;;;;;;4235120;27;20044;-56
2024/03/07 09:37:50;;;;;;;3.20;0.82;;;10.00;95.80;;;;;;4250914;27;20093;-57
2024/03/07 09:39:53;;;;;;;5.05;1.00;;;10.10;95.60;;;;;;4266119;27;20046;-57
2024/03/07 09:41:56;;;;;;;0.60;0.50;;;10.10;95.50;;;;;;4267614;27;20047;-56
2024/03/07 09:44:00;;;;;;;0.75;0.50;;;10.10;95.90;;;;;;4262126;27;20043;-58
2024/03/07 09:46:05;;;;;;;2.33;0.90;;;10.30;95.80;;;;;;4254053;27;20046;-57
2024/03/07 09:48:09;;;;;;;5.63;1.70;;;10.40;95.60;;;;;;4251477;27;20424;-58
2024/03/07 09:50:11;;;;;;;2.10;0.90;;;10.50;95.50;;;;;;4259128;27;20035;-57
2024/03/07 09:52:16;;;;;;;1.25;0.98;;;10.50;95.40;;;;;;4241529;27;20435;-55
2024/03/07 09:54:18;;;;;;;3.13;1.20;;;10.60;95.40;;;;;;4241138;27;20043;-57
2024/03/07 09:56:21;;;;;;;43.75;2.05;;;10.50;95.20;;;;;;4262767;27;20433;-61
2024/03/07 09:58:27;;;;;;;1.20;0.93;;;10.60;95.30;;;;;;4261140;27;20050;-57
2024/03/07 10:00:29;;;;;;;2.25;1.05;;;10.60;95.50;;;;;;4263988;27;20075;-54
2024/03/07 10:02:40;;;;;;;3.15;1.05;;;10.60;95.30;;;;;;4258282;27;20041;-54
2024/03/07 10:04:48;;;;;;;2.00;1.08;;;10.80;95.40;;;;;;4265485;27;20047;-54
2024/03/07 10:06:53;;;;;;;1.13;0.80;;;10.90;95.30;;;;;;4266439;27;20070;-54
2024/03/07 10:08:56;;;;;;;2.55;1.58;;;11.00;95.50;;;;;;4261992;27;20050;-60
2024/03/07 10:11:00;;;;;;;4.40;1.92;;;11.10;95.30;;;;;;4258418;27;20464;-54
2024/03/07 10:13:03;;;;;;;2.80;1.10;;;11.10;95.20;;;;;;4266506;27;20071;-60
2024/03/07 10:15:06;;;;;;;1.17;0.90;;;11.10;95.30;;;;;;4261250;27;20111;-57
2024/03/07 10:17:09;;;;;;;1.27;1.13;;;11.10;95.40;;;;;;4252860;27;20082;-57
2024/03/07 10:19:13;;;;;;;1.10;0.90;;;11.10;95.60;;;;;;4251359;27;20071;-56
2024/03/07 10:21:18;;;;;;;6.35;1.25;;;11.20;96.10;;;;;;4259851;27;20051;-57
2024/03/07 10:23:20;;;;;;;2.30;1.83;;;11.20;95.70;;;;;;4264425;27;20098;-55
2024/03/07 10:25:25;;;;;;;2.50;1.85;;;11.20;95.70;;;;;;4257010;27;20042;-55
2024/03/07 10:27:28;;;;;;;1.95;1.00;;;11.20;95.90;;;;;;4252999;27;20088;-55
2024/03/07 10:29:30;;;;;;;2.15;1.08;;;11.30;95.90;;;;;;4250934;27;20119;-55
2024/03/07 10:31:33;;;;;;;6.43;2.40;;;11.40;95.90;;;;;;4253527;27;20447;-54
2024/03/07 10:33:39;;;;;;;1.73;1.10;;;11.40;95.80;;;;;;4265768;27;20062;-54
2024/03/07 10:35:46;;;;;;;5.30;1.52;;;11.50;96.00;;;;;;4264442;27;20042;-57
2024/03/07 10:37:50;;;;;;;3.88;1.48;;;11.50;95.90;;;;;;4257883;27;20503;-55
2024/03/07 10:39:52;;;;;;;3.25;1.38;;;11.50;95.80;;;;;;4263261;27;20056;-55
2024/03/07 10:41:57;;;;;;;7.85;2.25;;;11.60;95.90;;;;;;4264179;27;20103;-57
2024/03/07 10:44:00;;;;;;;5.72;1.75;;;11.80;96.00;;;;;;4265379;27;20478;-57
2024/03/07 10:46:08;;;;;;;5.20;1.58;;;12.10;96.50;;;;;;4257827;27;20456;-55
2024/03/07 10:48:12;;;;;;;2.40;1.20;;;12.20;96.00;;;;;;4247595;27;20124;-56